sensor_id;sensor_type;location;lat;lon;timestamp;P1;durP1;ratioP1;P2;durP2;ratioP2
38785;SDS011;24535;45.508;12.252;2022-12-24T00:01:47;119.38;;;87.82;;
38785;SDS011;24535;45.508;12.252;2022-12-24T00:04:12;120.63;;;91.53;;
38785;SDS011;24535;45.508;12.252;2022-12-24T00:06:38;132.48;;;99.45;;
38785;SDS011;24535;45.508;12.252;2022-12-24T00:09:03;130.90;;;92.60;;
38785;SDS011;24535;45.508;12.252;2022-12-24T00:11:29;140.45;;;101.07;;
38785;SDS011;24535;45.508;12.252;2022-12-24T00:13:54;153.57;;;104.95;;
38785;SDS011;24535;45.508;12.252;2022-12-24T00:16:20;140.10;;;98.43;;
38785;SDS011;24535;45.508;12.252;2022-12-24T00:18:46;145.10;;;102.50;;
38785;SDS011;24535;45.508;12.252;2022-12-24T00:21:11;125.68;;;93.75;;
38785;SDS011;24535;45.508;12.252;2022-12-24T00:23:40;157.00;;;106.97;;
38785;SDS011;24535;45.508;12.252;2022-12-24T00:26:06;145.60;;;107.40;;
38785;SDS011;24535;45.508;12.252;2022-12-24T00:28:31;151.23;;;109.25;;
38785;SDS011;24535;45.508;12.252;2022-12-24T00:30:57;147.90;;;106.32;;
38785;SDS011;24535;45.508;12.252;2022-12-24T00:36:32;117.82;;;88.05;;
38785;SDS011;24535;45.508;12.252;2022-12-24T00:38:58;140.07;;;104.93;;
38785;SDS011;24535;45.508;12.252;2022-12-24T00:41:23;140.68;;;100.35;;
38785;SDS011;24535;45.508;12.252;2022-12-24T00:43:53;132.82;;;97.32;;
38785;SDS011;24535;45.508;12.252;2022-12-24T00:46:21;135.48;;;97.18;;
38785;SDS011;24535;45.508;12.252;2022-12-24T00:48:47;142.63;;;100.07;;
38785;SDS011;24535;45.508;12.252;2022-12-24T00:51:13;132.18;;;95.10;;
38785;SDS011;24535;45.508;12.252;2022-12-24T00:53:39;144.70;;;100.43;;
38785;SDS011;24535;45.508;12.252;2022-12-24T00:56:05;143.35;;;105.18;;
38785;SDS011;24535;45.508;12.252;2022-12-24T00:58:31;148.05;;;105.50;;
38785;SDS011;24535;45.508;12.252;2022-12-24T01:00:57;155.65;;;107.40;;
38785;SDS011;24535;45.508;12.252;2022-12-24T01:03:22;142.23;;;103.60;;
38785;SDS011;24535;45.508;12.252;2022-12-24T01:05:58;147.02;;;105.00;;
38785;SDS011;24535;45.508;12.252;2022-12-24T01:08:23;146.35;;;108.07;;
38785;SDS011;24535;45.508;12.252;2022-12-24T01:10:49;152.00;;;108.78;;
38785;SDS011;24535;45.508;12.252;2022-12-24T01:13:16;152.57;;;108.38;;
38785;SDS011;24535;45.508;12.252;2022-12-24T01:15:42;141.57;;;104.00;;
38785;SDS011;24535;45.508;12.252;2022-12-24T01:18:08;153.93;;;113.20;;
38785;SDS011;24535;45.508;12.252;2022-12-24T01:20:33;148.27;;;102.22;;
38785;SDS011;24535;45.508;12.252;2022-12-24T01:22:58;148.70;;;110.90;;
38785;SDS011;24535;45.508;12.252;2022-12-24T01:25:24;165.90;;;111.45;;
38785;SDS011;24535;45.508;12.252;2022-12-24T01:27:49;155.40;;;107.40;;
38785;SDS011;24535;45.508;12.252;2022-12-24T01:30:18;137.40;;;101.07;;
38785;SDS011;24535;45.508;12.252;2022-12-24T01:32:43;146.18;;;104.55;;
38785;SDS011;24535;45.508;12.252;2022-12-24T01:35:09;118.15;;;88.72;;
38785;SDS011;24535;45.508;12.252;2022-12-24T01:37:35;114.18;;;82.47;;
38785;SDS011;24535;45.508;12.252;2022-12-24T01:40:00;136.07;;;96.07;;
38785;SDS011;24535;45.508;12.252;2022-12-24T01:42:59;115.70;;;89.28;;
38785;SDS011;24535;45.508;12.252;2022-12-24T01:46:02;131.93;;;96.20;;
38785;SDS011;24535;45.508;12.252;2022-12-24T01:48:38;137.48;;;97.13;;
38785;SDS011;24535;45.508;12.252;2022-12-24T01:53:35;137.02;;;101.55;;
38785;SDS011;24535;45.508;12.252;2022-12-24T01:56:03;145.05;;;102.68;;
38785;SDS011;24535;45.508;12.252;2022-12-24T01:58:31;150.80;;;108.38;;
38785;SDS011;24535;45.508;12.252;2022-12-24T02:01:00;145.97;;;108.17;;
38785;SDS011;24535;45.508;12.252;2022-12-24T02:03:25;145.38;;;104.53;;
38785;SDS011;24535;45.508;12.252;2022-12-24T02:05:52;138.15;;;96.85;;
38785;SDS011;24535;45.508;12.252;2022-12-24T02:08:21;148.70;;;106.90;;
38785;SDS011;24535;45.508;12.252;2022-12-24T02:10:46;136.43;;;102.35;;
38785;SDS011;24535;45.508;12.252;2022-12-24T02:13:14;140.60;;;101.95;;
38785;SDS011;24535;45.508;12.252;2022-12-24T02:24:00;147.77;;;107.13;;
38785;SDS011;24535;45.508;12.252;2022-12-24T02:35:08;150.75;;;107.32;;
38785;SDS011;24535;45.508;12.252;2022-12-24T02:37:41;145.57;;;105.88;;
38785;SDS011;24535;45.508;12.252;2022-12-24T02:40:21;138.25;;;104.28;;
38785;SDS011;24535;45.508;12.252;2022-12-24T02:42:52;132.20;;;100.97;;
38785;SDS011;24535;45.508;12.252;2022-12-24T02:45:29;147.95;;;102.88;;
38785;SDS011;24535;45.508;12.252;2022-12-24T02:47:56;146.88;;;107.88;;
38785;SDS011;24535;45.508;12.252;2022-12-24T02:50:22;137.82;;;102.50;;
38785;SDS011;24535;45.508;12.252;2022-12-24T02:52:48;147.65;;;109.68;;
38785;SDS011;24535;45.508;12.252;2022-12-24T03:00:56;136.45;;;106.10;;
38785;SDS011;24535;45.508;12.252;2022-12-24T03:06:31;141.80;;;102.75;;
38785;SDS011;24535;45.508;12.252;2022-12-24T03:09:49;148.85;;;109.07;;
38785;SDS011;24535;45.508;12.252;2022-12-24T03:12:06;157.02;;;111.03;;
38785;SDS011;24535;45.508;12.252;2022-12-24T03:14:38;137.23;;;103.57;;
38785;SDS011;24535;45.508;12.252;2022-12-24T03:17:05;140.80;;;101.57;;
38785;SDS011;24535;45.508;12.252;2022-12-24T03:19:33;141.35;;;103.75;;
38785;SDS011;24535;45.508;12.252;2022-12-24T03:21:59;147.38;;;102.60;;
38785;SDS011;24535;45.508;12.252;2022-12-24T03:24:28;124.20;;;92.60;;
38785;SDS011;24535;45.508;12.252;2022-12-24T03:26:53;126.80;;;93.00;;
38785;SDS011;24535;45.508;12.252;2022-12-24T03:29:20;130.55;;;97.30;;
38785;SDS011;24535;45.508;12.252;2022-12-24T03:31:46;139.40;;;101.82;;
38785;SDS011;24535;45.508;12.252;2022-12-24T03:34:14;134.35;;;100.18;;
38785;SDS011;24535;45.508;12.252;2022-12-24T03:36:41;134.40;;;103.38;;
38785;SDS011;24535;45.508;12.252;2022-12-24T03:39:07;148.35;;;107.05;;
38785;SDS011;24535;45.508;12.252;2022-12-24T03:41:33;133.38;;;97.72;;
38785;SDS011;24535;45.508;12.252;2022-12-24T03:43:59;149.05;;;105.32;;
38785;SDS011;24535;45.508;12.252;2022-12-24T03:46:25;131.00;;;97.70;;
38785;SDS011;24535;45.508;12.252;2022-12-24T03:48:50;137.43;;;105.75;;
38785;SDS011;24535;45.508;12.252;2022-12-24T03:51:22;155.15;;;111.03;;
38785;SDS011;24535;45.508;12.252;2022-12-24T03:53:52;125.53;;;97.47;;
38785;SDS011;24535;45.508;12.252;2022-12-24T03:56:32;123.93;;;95.40;;
38785;SDS011;24535;45.508;12.252;2022-12-24T03:58:58;134.60;;;104.22;;
38785;SDS011;24535;45.508;12.252;2022-12-24T04:01:23;142.30;;;100.28;;
38785;SDS011;24535;45.508;12.252;2022-12-24T04:03:49;137.38;;;95.70;;
38785;SDS011;24535;45.508;12.252;2022-12-24T04:06:15;139.30;;;103.57;;
38785;SDS011;24535;45.508;12.252;2022-12-24T04:08:42;138.55;;;101.15;;
38785;SDS011;24535;45.508;12.252;2022-12-24T04:11:08;136.65;;;103.15;;
38785;SDS011;24535;45.508;12.252;2022-12-24T04:13:35;140.52;;;106.82;;
38785;SDS011;24535;45.508;12.252;2022-12-24T04:16:04;109.00;;;83.20;;
38785;SDS011;24535;45.508;12.252;2022-12-24T04:18:35;131.35;;;99.60;;
38785;SDS011;24535;45.508;12.252;2022-12-24T04:21:01;127.10;;;92.50;;
38785;SDS011;24535;45.508;12.252;2022-12-24T04:23:28;126.32;;;92.22;;
38785;SDS011;24535;45.508;12.252;2022-12-24T04:25:55;113.90;;;87.07;;
38785;SDS011;24535;45.508;12.252;2022-12-24T04:28:23;121.53;;;91.55;;
38785;SDS011;24535;45.508;12.252;2022-12-24T04:36:30;99.97;;;80.47;;
38785;SDS011;24535;45.508;12.252;2022-12-24T04:38:49;119.80;;;91.05;;
38785;SDS011;24535;45.508;12.252;2022-12-24T04:41:18;127.07;;;94.10;;
38785;SDS011;24535;45.508;12.252;2022-12-24T04:43:45;127.90;;;94.72;;
38785;SDS011;24535;45.508;12.252;2022-12-24T04:46:15;116.87;;;89.83;;
38785;SDS011;24535;45.508;12.252;2022-12-24T04:52:36;127.50;;;93.95;;
38785;SDS011;24535;45.508;12.252;2022-12-24T04:55:03;99.47;;;77.40;;
38785;SDS011;24535;45.508;12.252;2022-12-24T04:57:33;117.28;;;90.32;;
38785;SDS011;24535;45.508;12.252;2022-12-24T05:00:00;129.98;;;94.97;;
38785;SDS011;24535;45.508;12.252;2022-12-24T05:02:35;133.80;;;97.65;;
38785;SDS011;24535;45.508;12.252;2022-12-24T05:05:00;131.35;;;94.70;;
38785;SDS011;24535;45.508;12.252;2022-12-24T05:07:28;123.43;;;91.55;;
38785;SDS011;24535;45.508;12.252;2022-12-24T05:12:34;115.88;;;88.15;;
38785;SDS011;24535;45.508;12.252;2022-12-24T05:17:30;123.35;;;92.75;;
38785;SDS011;24535;45.508;12.252;2022-12-24T05:19:59;135.73;;;98.72;;
38785;SDS011;24535;45.508;12.252;2022-12-24T05:22:42;110.80;;;85.18;;
38785;SDS011;24535;45.508;12.252;2022-12-24T05:25:27;133.57;;;96.88;;
38785;SDS011;24535;45.508;12.252;2022-12-24T05:33:49;106.85;;;82.78;;
38785;SDS011;24535;45.508;12.252;2022-12-24T05:36:21;105.50;;;79.95;;
38785;SDS011;24535;45.508;12.252;2022-12-24T05:39:15;124.53;;;89.53;;
38785;SDS011;24535;45.508;12.252;2022-12-24T05:41:42;118.43;;;90.72;;
38785;SDS011;24535;45.508;12.252;2022-12-24T05:46:40;119.82;;;89.47;;
38785;SDS011;24535;45.508;12.252;2022-12-24T05:49:10;125.45;;;95.80;;
38785;SDS011;24535;45.508;12.252;2022-12-24T05:51:36;142.15;;;98.75;;
38785;SDS011;24535;45.508;12.252;2022-12-24T06:07:08;123.40;;;90.82;;
38785;SDS011;24535;45.508;12.252;2022-12-24T06:09:33;134.63;;;99.43;;
38785;SDS011;24535;45.508;12.252;2022-12-24T06:11:59;128.70;;;95.38;;
38785;SDS011;24535;45.508;12.252;2022-12-24T06:14:24;134.90;;;98.85;;
38785;SDS011;24535;45.508;12.252;2022-12-24T06:16:52;113.97;;;83.50;;
38785;SDS011;24535;45.508;12.252;2022-12-24T06:19:22;112.70;;;83.18;;
38785;SDS011;24535;45.508;12.252;2022-12-24T06:21:47;110.70;;;85.40;;
38785;SDS011;24535;45.508;12.252;2022-12-24T06:24:13;118.47;;;85.50;;
38785;SDS011;24535;45.508;12.252;2022-12-24T06:26:39;133.68;;;93.85;;
38785;SDS011;24535;45.508;12.252;2022-12-24T06:29:11;124.50;;;94.45;;
38785;SDS011;24535;45.508;12.252;2022-12-24T06:31:36;126.40;;;96.57;;
38785;SDS011;24535;45.508;12.252;2022-12-24T06:34:02;137.85;;;97.00;;
38785;SDS011;24535;45.508;12.252;2022-12-24T06:36:27;130.15;;;94.78;;
38785;SDS011;24535;45.508;12.252;2022-12-24T06:38:53;111.57;;;85.35;;
38785;SDS011;24535;45.508;12.252;2022-12-24T06:41:19;112.75;;;83.25;;
38785;SDS011;24535;45.508;12.252;2022-12-24T06:43:46;120.88;;;90.93;;
38785;SDS011;24535;45.508;12.252;2022-12-24T06:46:13;105.03;;;76.18;;
38785;SDS011;24535;45.508;12.252;2022-12-24T06:48:39;101.88;;;75.70;;
38785;SDS011;24535;45.508;12.252;2022-12-24T06:53:40;116.93;;;87.50;;
38785;SDS011;24535;45.508;12.252;2022-12-24T06:56:09;123.20;;;92.55;;
38785;SDS011;24535;45.508;12.252;2022-12-24T06:59:18;104.70;;;78.45;;
38785;SDS011;24535;45.508;12.252;2022-12-24T07:04:09;108.38;;;83.82;;
38785;SDS011;24535;45.508;12.252;2022-12-24T07:06:35;107.35;;;82.40;;
38785;SDS011;24535;45.508;12.252;2022-12-24T07:09:00;135.10;;;96.28;;
38785;SDS011;24535;45.508;12.252;2022-12-24T07:11:26;132.30;;;93.95;;
38785;SDS011;24535;45.508;12.252;2022-12-24T07:16:26;115.97;;;87.45;;
38785;SDS011;24535;45.508;12.252;2022-12-24T07:18:55;108.30;;;79.53;;
38785;SDS011;24535;45.508;12.252;2022-12-24T07:21:23;104.55;;;77.13;;
38785;SDS011;24535;45.508;12.252;2022-12-24T07:23:48;112.50;;;83.63;;
38785;SDS011;24535;45.508;12.252;2022-12-24T07:26:17;125.82;;;86.57;;
38785;SDS011;24535;45.508;12.252;2022-12-24T07:28:47;116.15;;;88.00;;
38785;SDS011;24535;45.508;12.252;2022-12-24T07:31:13;115.18;;;90.72;;
38785;SDS011;24535;45.508;12.252;2022-12-24T07:33:38;122.53;;;92.80;;
38785;SDS011;24535;45.508;12.252;2022-12-24T07:36:07;105.38;;;80.75;;
38785;SDS011;24535;45.508;12.252;2022-12-24T07:39:11;101.97;;;75.82;;
38785;SDS011;24535;45.508;12.252;2022-12-24T07:41:37;94.40;;;71.25;;
38785;SDS011;24535;45.508;12.252;2022-12-24T07:44:02;115.05;;;85.63;;
38785;SDS011;24535;45.508;12.252;2022-12-24T07:46:31;111.65;;;86.35;;
38785;SDS011;24535;45.508;12.252;2022-12-24T07:48:59;118.68;;;85.53;;
38785;SDS011;24535;45.508;12.252;2022-12-24T07:51:42;124.53;;;87.38;;
38785;SDS011;24535;45.508;12.252;2022-12-24T07:54:08;99.43;;;77.88;;
38785;SDS011;24535;45.508;12.252;2022-12-24T07:56:36;106.78;;;83.38;;
38785;SDS011;24535;45.508;12.252;2022-12-24T07:59:11;96.97;;;72.45;;
38785;SDS011;24535;45.508;12.252;2022-12-24T08:04:24;105.63;;;79.72;;
38785;SDS011;24535;45.508;12.252;2022-12-24T08:06:50;108.30;;;83.00;;
38785;SDS011;24535;45.508;12.252;2022-12-24T08:09:15;119.10;;;87.88;;
38785;SDS011;24535;45.508;12.252;2022-12-24T08:11:41;123.63;;;89.25;;
38785;SDS011;24535;45.508;12.252;2022-12-24T08:14:10;113.45;;;86.88;;
38785;SDS011;24535;45.508;12.252;2022-12-24T08:19:19;99.47;;;74.85;;
38785;SDS011;24535;45.508;12.252;2022-12-24T08:21:44;117.50;;;86.97;;
38785;SDS011;24535;45.508;12.252;2022-12-24T08:24:10;122.55;;;85.97;;
38785;SDS011;24535;45.508;12.252;2022-12-24T08:26:36;123.25;;;89.13;;
38785;SDS011;24535;45.508;12.252;2022-12-24T08:29:02;130.32;;;93.15;;
38785;SDS011;24535;45.508;12.252;2022-12-24T08:31:35;123.78;;;90.22;;
38785;SDS011;24535;45.508;12.252;2022-12-24T08:34:04;114.75;;;82.38;;
38785;SDS011;24535;45.508;12.252;2022-12-24T08:39:37;105.57;;;77.63;;
38785;SDS011;24535;45.508;12.252;2022-12-24T08:42:11;101.32;;;76.15;;
38785;SDS011;24535;45.508;12.252;2022-12-24T08:44:40;100.22;;;78.13;;
38785;SDS011;24535;45.508;12.252;2022-12-24T08:57:27;113.00;;;84.75;;
38785;SDS011;24535;45.508;12.252;2022-12-24T09:00:05;100.77;;;78.90;;
38785;SDS011;24535;45.508;12.252;2022-12-24T09:02:32;110.60;;;82.22;;
38785;SDS011;24535;45.508;12.252;2022-12-24T09:04:57;108.20;;;78.38;;
38785;SDS011;24535;45.508;12.252;2022-12-24T09:07:22;99.68;;;76.13;;
38785;SDS011;24535;45.508;12.252;2022-12-24T09:09:55;112.15;;;82.57;;
38785;SDS011;24535;45.508;12.252;2022-12-24T09:12:21;103.68;;;79.63;;
38785;SDS011;24535;45.508;12.252;2022-12-24T09:14:46;100.03;;;74.55;;
38785;SDS011;24535;45.508;12.252;2022-12-24T09:28:27;98.15;;;72.05;;
38785;SDS011;24535;45.508;12.252;2022-12-24T09:30:56;90.55;;;67.35;;
38785;SDS011;24535;45.508;12.252;2022-12-24T09:33:30;80.88;;;61.03;;
38785;SDS011;24535;45.508;12.252;2022-12-24T09:38:23;92.45;;;70.22;;
38785;SDS011;24535;45.508;12.252;2022-12-24T09:46:46;87.95;;;65.28;;
38785;SDS011;24535;45.508;12.252;2022-12-24T09:52:39;90.18;;;67.60;;
38785;SDS011;24535;45.508;12.252;2022-12-24T10:00:14;89.95;;;66.72;;
38785;SDS011;24535;45.508;12.252;2022-12-24T10:27:14;71.60;;;58.35;;
38785;SDS011;24535;45.508;12.252;2022-12-24T10:29:44;93.53;;;64.53;;
38785;SDS011;24535;45.508;12.252;2022-12-24T10:35:05;79.85;;;61.92;;
38785;SDS011;24535;45.508;12.252;2022-12-24T10:38:02;82.10;;;63.08;;
38785;SDS011;24535;45.508;12.252;2022-12-24T10:40:36;76.63;;;58.55;;
38785;SDS011;24535;45.508;12.252;2022-12-24T10:43:20;79.32;;;59.10;;
38785;SDS011;24535;45.508;12.252;2022-12-24T10:45:52;75.55;;;58.28;;
38785;SDS011;24535;45.508;12.252;2022-12-24T10:48:30;73.07;;;54.33;;
38785;SDS011;24535;45.508;12.252;2022-12-24T10:54:26;77.18;;;57.00;;
38785;SDS011;24535;45.508;12.252;2022-12-24T10:56:59;79.90;;;59.58;;
38785;SDS011;24535;45.508;12.252;2022-12-24T11:02:09;73.78;;;57.65;;
38785;SDS011;24535;45.508;12.252;2022-12-24T11:04:51;64.85;;;51.58;;
38785;SDS011;24535;45.508;12.252;2022-12-24T11:07:20;61.42;;;48.50;;
38785;SDS011;24535;45.508;12.252;2022-12-24T11:12:30;75.20;;;55.85;;
38785;SDS011;24535;45.508;12.252;2022-12-24T11:15:00;74.68;;;55.72;;
38785;SDS011;24535;45.508;12.252;2022-12-24T11:17:32;59.92;;;48.67;;
38785;SDS011;24535;45.508;12.252;2022-12-24T11:20:00;57.80;;;45.92;;
38785;SDS011;24535;45.508;12.252;2022-12-24T11:22:31;55.95;;;44.15;;
38785;SDS011;24535;45.508;12.252;2022-12-24T11:25:16;58.83;;;44.88;;
38785;SDS011;24535;45.508;12.252;2022-12-24T11:30:54;69.72;;;50.00;;
38785;SDS011;24535;45.508;12.252;2022-12-24T11:34:20;60.90;;;44.92;;
38785;SDS011;24535;45.508;12.252;2022-12-24T11:37:23;56.60;;;45.45;;
38785;SDS011;24535;45.508;12.252;2022-12-24T11:40:07;59.63;;;45.92;;
38785;SDS011;24535;45.508;12.252;2022-12-24T11:43:01;73.43;;;57.47;;
38785;SDS011;24535;45.508;12.252;2022-12-24T12:00:08;57.92;;;46.90;;
38785;SDS011;24535;45.508;12.252;2022-12-24T12:05:57;61.63;;;46.92;;
38785;SDS011;24535;45.508;12.252;2022-12-24T12:14:42;74.38;;;54.95;;
38785;SDS011;24535;45.508;12.252;2022-12-24T12:20:03;71.85;;;54.35;;
38785;SDS011;24535;45.508;12.252;2022-12-24T12:22:49;69.78;;;52.03;;
38785;SDS011;24535;45.508;12.252;2022-12-24T12:25:26;73.82;;;53.05;;
38785;SDS011;24535;45.508;12.252;2022-12-24T12:28:00;69.50;;;51.78;;
38785;SDS011;24535;45.508;12.252;2022-12-24T12:33:30;76.18;;;53.30;;
38785;SDS011;24535;45.508;12.252;2022-12-24T12:36:03;79.82;;;56.50;;
38785;SDS011;24535;45.508;12.252;2022-12-24T12:41:42;66.25;;;52.53;;
38785;SDS011;24535;45.508;12.252;2022-12-24T12:59:53;68.82;;;51.20;;
38785;SDS011;24535;45.508;12.252;2022-12-24T13:08:34;67.03;;;50.47;;
38785;SDS011;24535;45.508;12.252;2022-12-24T13:25:26;70.95;;;52.53;;
38785;SDS011;24535;45.508;12.252;2022-12-24T13:28:16;64.53;;;49.95;;
38785;SDS011;24535;45.508;12.252;2022-12-24T13:39:33;76.38;;;56.13;;
38785;SDS011;24535;45.508;12.252;2022-12-24T13:47:57;63.92;;;49.13;;
38785;SDS011;24535;45.508;12.252;2022-12-24T13:50:51;61.35;;;47.75;;
38785;SDS011;24535;45.508;12.252;2022-12-24T13:55:50;64.63;;;49.28;;
38785;SDS011;24535;45.508;12.252;2022-12-24T14:01:40;75.70;;;56.08;;
38785;SDS011;24535;45.508;12.252;2022-12-24T14:04:40;64.13;;;49.70;;
38785;SDS011;24535;45.508;12.252;2022-12-24T14:09:31;64.30;;;49.88;;
38785;SDS011;24535;45.508;12.252;2022-12-24T14:17:38;67.20;;;48.85;;
38785;SDS011;24535;45.508;12.252;2022-12-24T14:20:05;64.95;;;49.05;;
38785;SDS011;24535;45.508;12.252;2022-12-24T14:22:35;68.90;;;51.10;;
38785;SDS011;24535;45.508;12.252;2022-12-24T14:27:42;65.50;;;48.05;;
38785;SDS011;24535;45.508;12.252;2022-12-24T14:30:19;68.25;;;47.10;;
38785;SDS011;24535;45.508;12.252;2022-12-24T14:32:48;76.78;;;55.22;;
38785;SDS011;24535;45.508;12.252;2022-12-24T14:40:20;91.90;;;65.50;;
38785;SDS011;24535;45.508;12.252;2022-12-24T14:42:53;69.88;;;52.15;;
38785;SDS011;24535;45.508;12.252;2022-12-24T14:45:27;62.92;;;48.45;;
38785;SDS011;24535;45.508;12.252;2022-12-24T14:56:28;91.22;;;64.80;;
38785;SDS011;24535;45.508;12.252;2022-12-24T14:58:57;89.18;;;68.25;;
38785;SDS011;24535;45.508;12.252;2022-12-24T15:01:29;80.45;;;58.35;;
38785;SDS011;24535;45.508;12.252;2022-12-24T15:06:40;74.82;;;58.13;;
38785;SDS011;24535;45.508;12.252;2022-12-24T15:09:12;89.70;;;64.55;;
38785;SDS011;24535;45.508;12.252;2022-12-24T15:11:55;96.68;;;70.97;;
38785;SDS011;24535;45.508;12.252;2022-12-24T15:14:27;76.07;;;55.63;;
38785;SDS011;24535;45.508;12.252;2022-12-24T15:17:01;90.50;;;68.22;;
38785;SDS011;24535;45.508;12.252;2022-12-24T15:22:16;80.75;;;58.20;;
38785;SDS011;24535;45.508;12.252;2022-12-24T15:27:42;101.68;;;75.30;;
38785;SDS011;24535;45.508;12.252;2022-12-24T15:30:16;102.25;;;71.47;;
38785;SDS011;24535;45.508;12.252;2022-12-24T15:32:43;99.95;;;74.90;;
38785;SDS011;24535;45.508;12.252;2022-12-24T15:38:03;102.22;;;73.00;;
38785;SDS011;24535;45.508;12.252;2022-12-24T15:40:48;100.60;;;73.85;;
38785;SDS011;24535;45.508;12.252;2022-12-24T15:43:14;104.22;;;77.70;;
38785;SDS011;24535;45.508;12.252;2022-12-24T15:45:41;88.68;;;65.32;;
38785;SDS011;24535;45.508;12.252;2022-12-24T15:48:25;119.85;;;82.90;;
38785;SDS011;24535;45.508;12.252;2022-12-24T15:51:06;110.22;;;82.53;;
38785;SDS011;24535;45.508;12.252;2022-12-24T15:53:44;117.57;;;81.28;;
38785;SDS011;24535;45.508;12.252;2022-12-24T15:58:45;109.82;;;82.30;;
38785;SDS011;24535;45.508;12.252;2022-12-24T16:06:24;116.57;;;83.05;;
38785;SDS011;24535;45.508;12.252;2022-12-24T16:25:28;100.93;;;68.57;;
38785;SDS011;24535;45.508;12.252;2022-12-24T16:27:53;91.70;;;64.60;;
38785;SDS011;24535;45.508;12.252;2022-12-24T16:30:19;99.28;;;73.20;;
38785;SDS011;24535;45.508;12.252;2022-12-24T16:32:50;91.45;;;71.28;;
38785;SDS011;24535;45.508;12.252;2022-12-24T16:35:25;83.60;;;61.95;;
38785;SDS011;24535;45.508;12.252;2022-12-24T16:43:03;78.50;;;59.15;;
38785;SDS011;24535;45.508;12.252;2022-12-24T16:45:50;67.70;;;51.35;;
38785;SDS011;24535;45.508;12.252;2022-12-24T16:51:53;87.03;;;65.82;;
38785;SDS011;24535;45.508;12.252;2022-12-24T16:54:19;73.95;;;57.78;;
38785;SDS011;24535;45.508;12.252;2022-12-24T17:02:30;76.25;;;60.30;;
38785;SDS011;24535;45.508;12.252;2022-12-24T17:04:55;72.53;;;55.30;;
38785;SDS011;24535;45.508;12.252;2022-12-24T17:07:21;76.38;;;57.70;;
38785;SDS011;24535;45.508;12.252;2022-12-24T17:09:47;91.32;;;73.35;;
38785;SDS011;24535;45.508;12.252;2022-12-24T17:12:12;89.25;;;67.95;;
38785;SDS011;24535;45.508;12.252;2022-12-24T17:14:38;76.40;;;57.25;;
38785;SDS011;24535;45.508;12.252;2022-12-24T17:20:19;71.10;;;55.40;;
38785;SDS011;24535;45.508;12.252;2022-12-24T17:22:48;66.40;;;52.42;;
38785;SDS011;24535;45.508;12.252;2022-12-24T17:27:40;68.53;;;55.63;;
38785;SDS011;24535;45.508;12.252;2022-12-24T17:30:05;70.78;;;54.45;;
38785;SDS011;24535;45.508;12.252;2022-12-24T17:32:35;65.13;;;52.47;;
38785;SDS011;24535;45.508;12.252;2022-12-24T17:35:01;75.95;;;57.75;;
38785;SDS011;24535;45.508;12.252;2022-12-24T17:37:27;78.43;;;61.25;;
38785;SDS011;24535;45.508;12.252;2022-12-24T17:39:52;70.47;;;54.78;;
38785;SDS011;24535;45.508;12.252;2022-12-24T17:42:18;83.95;;;65.93;;
38785;SDS011;24535;45.508;12.252;2022-12-24T17:44:43;99.28;;;76.68;;
38785;SDS011;24535;45.508;12.252;2022-12-24T17:47:09;75.88;;;56.63;;
38785;SDS011;24535;45.508;12.252;2022-12-24T17:49:35;82.25;;;62.28;;
38785;SDS011;24535;45.508;12.252;2022-12-24T17:52:07;71.18;;;54.58;;
38785;SDS011;24535;45.508;12.252;2022-12-24T17:54:32;75.15;;;54.60;;
38785;SDS011;24535;45.508;12.252;2022-12-24T17:57:04;93.30;;;71.82;;
38785;SDS011;24535;45.508;12.252;2022-12-24T18:02:42;71.63;;;54.90;;
38785;SDS011;24535;45.508;12.252;2022-12-24T18:05:07;84.13;;;65.15;;
38785;SDS011;24535;45.508;12.252;2022-12-24T18:07:33;79.07;;;65.32;;
38785;SDS011;24535;45.508;12.252;2022-12-24T18:09:58;77.95;;;56.78;;
38785;SDS011;24535;45.508;12.252;2022-12-24T18:12:36;80.07;;;60.95;;
38785;SDS011;24535;45.508;12.252;2022-12-24T18:15:22;74.18;;;58.25;;
38785;SDS011;24535;45.508;12.252;2022-12-24T18:17:51;71.45;;;54.10;;
38785;SDS011;24535;45.508;12.252;2022-12-24T18:22:43;71.15;;;56.13;;
38785;SDS011;24535;45.508;12.252;2022-12-24T18:25:11;91.47;;;72.97;;
38785;SDS011;24535;45.508;12.252;2022-12-24T18:27:40;89.85;;;69.00;;
38785;SDS011;24535;45.508;12.252;2022-12-24T18:30:24;94.57;;;68.80;;
38785;SDS011;24535;45.508;12.252;2022-12-24T18:38:38;79.30;;;59.80;;
38785;SDS011;24535;45.508;12.252;2022-12-24T18:41:05;181.48;;;136.13;;
38785;SDS011;24535;45.508;12.252;2022-12-24T18:43:32;97.32;;;76.18;;
38785;SDS011;24535;45.508;12.252;2022-12-24T18:45:58;114.38;;;92.68;;
38785;SDS011;24535;45.508;12.252;2022-12-24T18:48:30;85.93;;;67.18;;
38785;SDS011;24535;45.508;12.252;2022-12-24T18:53:31;84.90;;;65.75;;
38785;SDS011;24535;45.508;12.252;2022-12-24T19:02:42;79.25;;;62.60;;
38785;SDS011;24535;45.508;12.252;2022-12-24T19:05:07;89.88;;;69.10;;
38785;SDS011;24535;45.508;12.252;2022-12-24T19:07:33;99.35;;;77.93;;
38785;SDS011;24535;45.508;12.252;2022-12-24T19:09:58;93.88;;;76.78;;
38785;SDS011;24535;45.508;12.252;2022-12-24T19:15:13;102.03;;;77.93;;
38785;SDS011;24535;45.508;12.252;2022-12-24T19:17:39;91.90;;;71.25;;
38785;SDS011;24535;45.508;12.252;2022-12-24T19:20:11;93.10;;;72.70;;
38785;SDS011;24535;45.508;12.252;2022-12-24T19:22:54;82.00;;;64.50;;
38785;SDS011;24535;45.508;12.252;2022-12-24T19:25:32;90.95;;;70.97;;
38785;SDS011;24535;45.508;12.252;2022-12-24T19:31:00;85.05;;;64.80;;
38785;SDS011;24535;45.508;12.252;2022-12-24T19:33:40;84.18;;;66.28;;
38785;SDS011;24535;45.508;12.252;2022-12-24T19:39:07;78.53;;;61.30;;
38785;SDS011;24535;45.508;12.252;2022-12-24T19:41:32;108.75;;;81.35;;
38785;SDS011;24535;45.508;12.252;2022-12-24T19:43:59;106.72;;;83.15;;
38785;SDS011;24535;45.508;12.252;2022-12-24T19:46:26;102.47;;;79.70;;
38785;SDS011;24535;45.508;12.252;2022-12-24T19:52:15;94.63;;;72.63;;
38785;SDS011;24535;45.508;12.252;2022-12-24T19:54:44;86.82;;;66.07;;
38785;SDS011;24535;45.508;12.252;2022-12-24T19:57:10;99.18;;;72.93;;
38785;SDS011;24535;45.508;12.252;2022-12-24T19:59:36;93.43;;;72.72;;
38785;SDS011;24535;45.508;12.252;2022-12-24T20:07:27;95.25;;;73.80;;
38785;SDS011;24535;45.508;12.252;2022-12-24T20:09:52;91.88;;;68.70;;
38785;SDS011;24535;45.508;12.252;2022-12-24T20:12:18;79.10;;;62.72;;
38785;SDS011;24535;45.508;12.252;2022-12-24T20:14:43;81.68;;;62.95;;
38785;SDS011;24535;45.508;12.252;2022-12-24T20:17:09;87.57;;;65.03;;
38785;SDS011;24535;45.508;12.252;2022-12-24T20:19:34;89.88;;;70.60;;
38785;SDS011;24535;45.508;12.252;2022-12-24T20:22:00;97.45;;;69.88;;
38785;SDS011;24535;45.508;12.252;2022-12-24T20:24:26;90.60;;;71.55;;